Time;durP1;ratioP1;P1;durP2;ratioP2;P2;SDS_P1;SDS_P2;PMS_P1;PMS_P2;Temp;Humidity;BMP_temperature;BMP_pressure;BME280_temperature;BME280_humidity;BME280_pressure;Samples;Min_cycle;Max_cycle;Signal;HPM_P1;HPM_P2
2023/10/22 00:01:26;;;;;;;1.50;0.68;;;;;;;12.82;100.00;99612.22;5069119;28;20394;-68
2023/10/22 00:03:51;;;;;;;2.15;1.48;;;;;;;12.81;100.00;99611.41;5051159;28;20033;-68
2023/10/22 00:06:17;;;;;;;1.23;0.65;;;;;;;12.79;100.00;99616.19;5069255;28;20048;-68
2023/10/22 00:08:43;;;;;;;1.90;0.80;;;;;;;12.78;100.00;99621.75;5069082;28;20038;-68
2023/10/22 00:11:09;;;;;;;0.73;0.57;;;;;;;12.75;100.00;99614.22;5068625;28;20052;-68
2023/10/22 00:13:35;;;;;;;1.48;0.85;;;;;;;12.80;100.00;99622.34;5068981;28;20039;-68
2023/10/22 00:16:00;;;;;;;2.30;0.50;;;;;;;12.75;100.00;99620.38;5068924;28;20025;-68
2023/10/22 00:18:26;;;;;;;3.45;1.30;;;;;;;12.78;100.00;99629.78;5068993;28;20036;-68
2023/10/22 00:20:51;;;;;;;1.27;0.55;;;;;;;12.76;100.00;99626.53;5068434;28;20086;-69
2023/10/22 00:23:16;;;;;;;0.70;0.55;;;;;;;12.72;100.00;99632.38;5068848;28;20097;-68
2023/10/22 00:25:42;;;;;;;0.65;0.40;;;;;;;12.72;100.00;99648.44;5068838;28;20387;-68
2023/10/22 00:28:07;;;;;;;3.40;0.93;;;;;;;12.74;100.00;99656.22;5068894;28;20075;-68
2023/10/22 00:30:34;;;;;;;2.22;0.80;;;;;;;12.72;100.00;99643.06;5068710;28;20109;-67
2023/10/22 00:32:59;;;;;;;1.17;0.50;;;;;;;12.75;100.00;99657.03;5068753;28;20420;-68
2023/10/22 00:35:24;;;;;;;2.33;0.70;;;;;;;12.72;100.00;99658.31;5068940;28;20077;-68
2023/10/22 00:37:50;;;;;;;1.15;0.80;;;;;;;12.74;100.00;99660.78;5068887;28;20039;-68
2023/10/22 00:40:15;;;;;;;2.40;0.57;;;;;;;12.74;100.00;99661.56;5068610;28;20040;-68
2023/10/22 00:42:40;;;;;;;1.38;0.75;;;;;;;12.77;100.00;99662.97;5068632;28;20119;-68
2023/10/22 00:45:07;;;;;;;3.72;0.75;;;;;;;12.72;100.00;99667.16;5068686;28;20601;-68
2023/10/22 00:47:34;;;;;;;3.17;0.95;;;;;;;12.72;100.00;99669.84;5068566;28;20060;-68
2023/10/22 00:49:59;;;;;;;4.35;0.77;;;;;;;12.76;100.00;99670.19;5068659;28;20028;-68
2023/10/22 00:52:26;;;;;;;3.28;1.02;;;;;;;12.77;100.00;99671.78;5068381;28;20055;-68
2023/10/22 00:54:53;;;;;;;1.33;0.55;;;;;;;12.74;100.00;99677.63;5068305;28;20052;-68
2023/10/22 00:57:19;;;;;;;9.30;2.15;;;;;;;12.80;100.00;99684.69;5050795;28;20039;-68
2023/10/22 00:59:45;;;;;;;2.15;0.85;;;;;;;12.80;100.00;99673.19;5068478;28;20040;-68
2023/10/22 01:02:11;;;;;;;3.55;0.98;;;;;;;12.79;100.00;99679.59;5068558;28;20065;-68
2023/10/22 01:04:37;;;;;;;0.93;0.68;;;;;;;12.79;100.00;99677.72;5068519;28;20513;-68
2023/10/22 01:07:05;;;;;;;0.73;0.70;;;;;;;12.78;100.00;99680.63;5068640;28;20028;-68
2023/10/22 01:09:30;;;;;;;3.63;0.90;;;;;;;12.79;100.00;99677.72;5049087;28;20049;-68
2023/10/22 01:12:04;;;;;;;6.40;1.00;;;;;;;12.77;100.00;99677.16;5049354;28;20044;-68
2023/10/22 01:14:29;;;;;;;2.92;1.15;;;;;;;12.80;100.00;99671.31;5049305;28;20035;-68
2023/10/22 01:16:55;;;;;;;2.30;0.95;;;;;;;12.78;100.00;99681.44;5049046;28;20018;-67
2023/10/22 01:19:21;;;;;;;4.57;0.85;;;;;;;12.80;100.00;99676.66;5049302;28;20056;-68
2023/10/22 01:21:46;;;;;;;2.10;0.80;;;;;;;12.79;100.00;99685.75;5031519;28;20124;-68
2023/10/22 01:24:11;;;;;;;4.40;1.65;;;;;;;12.81;100.00;99689.00;5049275;28;20029;-68
2023/10/22 01:26:41;;;;;;;1.45;0.93;;;;;;;12.82;100.00;99684.47;5049135;28;20036;-68
2023/10/22 01:29:06;;;;;;;0.98;0.77;;;;;;;12.82;100.00;99690.63;5031356;28;20394;-68
2023/10/22 01:31:32;;;;;;;1.52;1.13;;;;;;;12.82;100.00;99704.00;5049128;28;20033;-68
2023/10/22 01:33:57;;;;;;;1.90;0.77;;;;;;;12.82;100.00;99698.66;5034774;28;20040;-68
2023/10/22 01:36:23;;;;;;;4.07;0.70;;;;;;;12.83;100.00;99707.47;5052717;28;20035;-68
2023/10/22 01:38:48;;;;;;;3.50;1.00;;;;;;;12.78;100.00;99710.88;5052710;28;20488;-68
2023/10/22 01:41:13;;;;;;;2.90;0.88;;;;;;;12.77;100.00;99716.47;5062019;28;20036;-68
2023/10/22 01:43:39;;;;;;;4.03;0.90;;;;;;;12.80;100.00;99732.03;5053871;28;20391;-68
2023/10/22 01:46:04;;;;;;;4.60;1.33;;;;;;;12.79;100.00;99725.06;5051959;28;20380;-68
2023/10/22 01:48:30;;;;;;;3.70;1.05;;;;;;;12.79;100.00;99728.56;5052599;28;20110;-68
2023/10/22 01:50:55;;;;;;;2.40;0.90;;;;;;;12.77;100.00;99735.19;5052427;28;20469;-68
2023/10/22 01:53:20;;;;;;;2.95;1.83;;;;;;;12.72;100.00;99733.22;5052252;28;20036;-68
2023/10/22 01:55:46;;;;;;;4.47;0.95;;;;;;;12.65;100.00;99741.41;5052287;28;20033;-68
2023/10/22 01:58:11;;;;;;;1.40;0.82;;;;;;;12.62;100.00;99743.72;5052485;28;20601;-68
2023/10/22 02:00:36;;;;;;;5.00;0.88;;;;;;;12.58;100.00;99747.94;5034260;28;20048;-68
2023/10/22 02:03:02;;;;;;;5.55;1.88;;;;;;;12.54;100.00;99762.81;5052210;28;20056;-68
2023/10/22 02:05:32;;;;;;;2.20;0.85;;;;;;;12.42;100.00;99750.31;5052229;28;20032;-68
2023/10/22 02:07:58;;;;;;;3.20;1.40;;;;;;;12.42;100.00;99761.00;5052198;28;20115;-68
2023/10/22 02:10:24;;;;;;;2.08;0.95;;;;;;;12.36;100.00;99755.78;5051964;28;20114;-67
2023/10/22 02:12:50;;;;;;;3.78;1.38;;;;;;;12.32;100.00;99760.78;5034032;28;20043;-68
2023/10/22 02:15:16;;;;;;;3.40;0.95;;;;;;;12.27;100.00;99780.19;5051871;28;20045;-67
2023/10/22 02:17:41;;;;;;;2.55;1.25;;;;;;;12.23;100.00;99784.38;5051581;28;20487;-68
2023/10/22 02:20:08;;;;;;;1.33;1.20;;;;;;;12.18;100.00;99786.97;5051909;28;20468;-68
2023/10/22 02:22:36;;;;;;;1.88;1.20;;;;;;;12.12;100.00;99792.41;5051740;28;20040;-67
2023/10/22 02:25:01;;;;;;;2.28;0.80;;;;;;;12.04;100.00;99796.25;5051906;28;20484;-68
2023/10/22 02:27:27;;;;;;;0.90;0.70;;;;;;;11.98;100.00;99803.31;5051795;28;20040;-68
2023/10/22 02:29:52;;;;;;;1.85;0.90;;;;;;;11.97;100.00;99812.41;5051741;28;20040;-68
2023/10/22 02:32:17;;;;;;;5.35;1.52;;;;;;;11.90;100.00;99803.69;5068447;28;20039;-68
2023/10/22 02:34:43;;;;;;;2.92;1.20;;;;;;;11.94;100.00;99818.19;5070824;28;20040;-68
2023/10/22 02:37:08;;;;;;;6.40;1.20;;;;;;;11.93;100.00;99823.78;5070584;28;20033;-67
2023/10/22 02:39:33;;;;;;;2.35;1.30;;;;;;;11.91;100.00;99823.19;5051435;28;20135;-68
2023/10/22 02:41:59;;;;;;;6.22;1.00;;;;;;;11.89;100.00;99822.59;5051651;28;20128;-67
2023/10/22 02:44:24;;;;;;;1.58;1.35;;;;;;;11.87;100.00;99841.53;5051105;28;20476;-68
2023/10/22 02:46:49;;;;;;;3.33;1.38;;;;;;;11.87;100.00;99838.88;5051250;28;20361;-68
2023/10/22 02:49:15;;;;;;;5.05;1.58;;;;;;;11.85;100.00;99846.28;5051536;28;20043;-67
2023/10/22 02:51:40;;;;;;;5.15;1.30;;;;;;;11.85;100.00;99851.59;5051344;28;20097;-67
2023/10/22 02:54:06;;;;;;;5.00;2.47;;;;;;;11.83;100.00;99856.38;5051285;28;20037;-68
2023/10/22 02:56:31;;;;;;;3.95;2.17;;;;;;;11.77;100.00;99852.75;5051140;28;20039;-68
2023/10/22 02:58:56;;;;;;;2.53;0.90;;;;;;;11.81;100.00;99866.47;5033140;28;20044;-67
2023/10/22 03:01:22;;;;;;;1.85;1.10;;;;;;;11.78;100.00;99870.41;5051139;28;20033;-68
2023/10/22 03:03:48;;;;;;;2.13;1.30;;;;;;;11.81;100.00;99875.28;5051111;28;20483;-67
2023/10/22 03:06:14;;;;;;;3.95;1.60;;;;;;;11.78;100.00;99869.59;5050989;28;20046;-68
2023/10/22 03:08:41;;;;;;;4.38;1.95;;;;;;;11.77;100.00;99873.31;5050976;28;20029;-67
2023/10/22 03:11:15;;;;;;;2.90;1.10;;;;;;;11.78;100.00;99873.06;5050949;28;20064;-68
2023/10/22 03:13:40;;;;;;;3.83;1.50;;;;;;;11.81;100.00;99885.97;5032840;28;20021;-68
2023/10/22 03:16:07;;;;;;;1.35;1.08;;;;;;;11.78;100.00;99885.63;5050733;28;20060;-68
2023/10/22 03:18:32;;;;;;;3.50;1.38;;;;;;;11.81;100.00;99895.84;5050814;28;20029;-68
2023/10/22 03:20:58;;;;;;;2.17;1.80;;;;;;;11.81;100.00;99903.84;5050610;28;20032;-68
2023/10/22 03:23:23;;;;;;;2.55;1.13;;;;;;;11.81;100.00;99907.34;5050721;28;20033;-68
2023/10/22 03:25:48;;;;;;;4.72;1.40;;;;;;;11.81;100.00;99904.66;5050684;28;20472;-68
2023/10/22 03:28:14;;;;;;;5.10;1.70;;;;;;;11.83;100.00;99915.94;5032779;28;20476;-68
2023/10/22 03:30:39;;;;;;;3.78;1.58;;;;;;;11.84;100.00;99917.59;5050608;28;20403;-68
2023/10/22 03:33:05;;;;;;;1.35;1.25;;;;;;;11.82;100.00;99916.19;5050586;28;20392;-68
2023/10/22 03:35:31;;;;;;;3.22;1.75;;;;;;;11.82;100.00;99925.00;5050477;28;20120;-68
2023/10/22 03:37:56;;;;;;;3.70;1.98;;;;;;;11.82;100.00;99940.25;5050482;28;20399;-68
2023/10/22 03:40:22;;;;;;;6.15;1.70;;;;;;;11.83;100.00;99939.19;5015684;28;20473;-68
2023/10/22 03:42:50;;;;;;;6.13;1.95;;;;;;;11.83;100.00;99953.34;5050225;28;20032;-69
2023/10/22 03:45:15;;;;;;;4.47;2.10;;;;;;;11.79;100.00;99949.53;5050066;28;20106;-68
2023/10/22 03:47:40;;;;;;;3.58;2.10;;;;;;;11.79;100.00;99965.56;5050345;28;20029;-68
2023/10/22 03:50:06;;;;;;;6.75;2.40;;;;;;;11.79;100.00;99970.88;5050117;28;20056;-68
2023/10/22 03:52:32;;;;;;;3.80;2.58;;;;;;;11.74;100.00;99973.44;5051445;28;20116;-68
2023/10/22 03:54:57;;;;;;;10.18;3.28;;;;;;;11.78;100.00;99979.13;5050518;28;20024;-68
2023/10/22 03:57:22;;;;;;;7.30;2.72;;;;;;;11.73;100.00;99987.00;5033602;28;20122;-68
2023/10/22 03:59:48;;;;;;;5.35;2.83;;;;;;;11.74;100.00;99989.44;5066451;28;20028;-68
2023/10/22 04:02:14;;;;;;;6.88;2.83;;;;;;;11.72;100.00;100001.41;5069256;28;20399;-68
2023/10/22 04:04:39;;;;;;;7.10;3.40;;;;;;;11.69;100.00;100008.00;5069225;28;20024;-68
2023/10/22 04:07:05;;;;;;;4.53;2.50;;;;;;;11.64;100.00;99999.84;5069068;28;20036;-68
2023/10/22 04:09:30;;;;;;;6.95;3.55;;;;;;;11.67;100.00;100014.63;5056388;28;20308;-68
2023/10/22 04:11:56;;;;;;;9.10;2.95;;;;;;;11.58;100.00;100003.41;5049983;28;20120;-68
2023/10/22 04:14:21;;;;;;;6.47;3.88;;;;;;;11.60;100.00;100015.50;5049832;28;20048;-68
2023/10/22 04:16:49;;;;;;;6.65;3.67;;;;;;;11.61;100.00;100025.16;5050293;28;20037;-68
2023/10/22 04:19:15;;;;;;;10.00;3.20;;;;;;;11.62;100.00;100033.97;5049730;28;20174;-69
2023/10/22 04:21:40;;;;;;;6.28;3.35;;;;;;;11.61;100.00;100035.84;5049727;28;20025;-68
2023/10/22 04:24:06;;;;;;;11.63;3.75;;;;;;;11.60;100.00;100039.53;5049690;28;20028;-68
2023/10/22 04:26:31;;;;;;;9.95;4.72;;;;;;;11.58;100.00;100048.81;5049723;28;20056;-68
2023/10/22 04:28:57;;;;;;;7.65;3.38;;;;;;;11.58;100.00;100063.00;5049715;28;20116;-68
2023/10/22 04:31:22;;;;;;;9.27;3.55;;;;;;;11.57;100.00;100063.22;5049681;28;20032;-68
2023/10/22 04:33:48;;;;;;;7.43;3.38;;;;;;;11.55;100.00;100052.75;5031819;28;20043;-68
2023/10/22 04:36:20;;;;;;;7.45;3.75;;;;;;;11.53;100.00;100060.19;5049547;28;20053;-68
2023/10/22 04:38:45;;;;;;;10.05;4.38;;;;;;;11.48;100.00;100056.53;5049656;28;20090;-68
2023/10/22 04:41:11;;;;;;;6.47;3.35;;;;;;;11.51;100.00;100072.13;5049613;28;20033;-68
2023/10/22 04:43:37;;;;;;;7.75;3.97;;;;;;;11.50;100.00;100073.97;5049497;28;20434;-68
2023/10/22 04:46:02;;;;;;;5.57;2.85;;;;;;;11.46;100.00;100071.97;5049626;28;20045;-68
2023/10/22 04:48:28;;;;;;;9.32;4.10;;;;;;;11.48;100.00;100088.59;5031704;28;20025;-68
2023/10/22 04:50:55;;;;;;;11.23;4.20;;;;;;;11.43;100.00;100081.22;5049412;28;21032;-68
2023/10/22 04:53:20;;;;;;;10.65;3.30;;;;;;;11.42;100.00;100092.94;5031520;28;20029;-69
2023/10/22 04:55:58;;;;;;;6.90;3.88;;;;;;;11.40;100.00;100097.69;5049347;28;20632;-68
2023/10/22 04:58:23;;;;;;;7.85;3.33;;;;;;;11.38;100.00;100102.44;5049431;28;20068;-68
2023/10/22 05:00:50;;;;;;;5.38;3.40;;;;;;;11.36;100.00;100101.84;5049116;28;20061;-68
2023/10/22 05:03:15;;;;;;;7.50;3.47;;;;;;;11.31;100.00;100102.47;5068585;28;20534;-68
2023/10/22 05:05:40;;;;;;;8.13;3.45;;;;;;;11.27;100.00;100111.16;5068500;28;20031;-69
2023/10/22 05:08:07;;;;;;;6.40;3.33;;;;;;;11.19;100.00;100109.59;5072240;28;20360;-69
2023/10/22 05:10:39;;;;;;;9.77;3.33;;;;;;;11.18;100.00;100115.94;5072001;28;20530;-68
2023/10/22 05:13:05;;;;;;;6.10;3.63;;;;;;;11.13;100.00;100121.97;5072452;28;20032;-69
2023/10/22 05:15:31;;;;;;;6.05;3.13;;;;;;;11.07;100.00;100128.16;5071937;28;20047;-69
2023/10/22 05:17:57;;;;;;;4.78;3.10;;;;;;;11.05;100.00;100130.22;5072175;28;20103;-68
2023/10/22 05:20:27;;;;;;;8.07;3.60;;;;;;;11.01;100.00;100130.91;5071986;28;20039;-68
2023/10/22 05:22:52;;;;;;;7.05;3.55;;;;;;;10.94;100.00;100130.94;5072233;28;20036;-69
2023/10/22 05:25:20;;;;;;;6.18;3.10;;;;;;;10.93;100.00;100145.31;5054076;28;20077;-69
2023/10/22 05:27:45;;;;;;;10.13;3.00;;;;;;;10.87;100.00;100144.34;5072110;28;20353;-69
2023/10/22 05:30:11;;;;;;;8.95;3.78;;;;;;;10.86;100.00;100155.22;5071623;28;20078;-68
2023/10/22 05:32:37;;;;;;;6.07;3.17;;;;;;;10.83;100.00;100164.47;5071940;28;20036;-68
2023/10/22 05:35:03;;;;;;;5.70;2.70;;;;;;;10.80;100.00;100167.56;5071789;28;20020;-68
2023/10/22 05:37:29;;;;;;;4.03;2.50;;;;;;;10.78;100.00;100172.28;5071919;28;20043;-68
2023/10/22 05:39:56;;;;;;;8.48;3.08;;;;;;;10.73;100.00;100166.78;5071828;28;20032;-69
2023/10/22 05:42:21;;;;;;;13.55;3.00;;;;;;;10.74;100.00;100184.41;5071760;28;20028;-68
2023/10/22 05:44:46;;;;;;;8.45;3.22;;;;;;;10.72;100.00;100192.63;5053414;28;20472;-68
2023/10/22 05:47:12;;;;;;;4.22;2.60;;;;;;;10.70;100.00;100188.53;5071324;28;20116;-68
2023/10/22 05:49:37;;;;;;;6.18;2.80;;;;;;;10.67;100.00;100188.97;5071676;28;20032;-68
2023/10/22 05:52:03;;;;;;;8.20;3.42;;;;;;;10.67;100.00;100195.13;5053718;28;20093;-69
2023/10/22 05:54:29;;;;;;;4.93;2.22;;;;;;;10.64;100.00;100189.41;5071473;28;20028;-68
2023/10/22 05:56:54;;;;;;;5.25;2.88;;;;;;;10.63;100.00;100193.09;5071494;28;20033;-68
2023/10/22 05:59:20;;;;;;;8.10;2.92;;;;;;;10.61;100.00;100203.97;5071469;28;20391;-68
2023/10/22 06:01:45;;;;;;;6.03;2.50;;;;;;;10.58;100.00;100216.91;5071217;28;20425;-68
2023/10/22 06:04:11;;;;;;;5.55;2.60;;;;;;;10.56;100.00;100217.13;5071344;28;20115;-68
2023/10/22 06:06:37;;;;;;;5.32;2.92;;;;;;;10.49;100.00;100216.34;5071212;28;20047;-68
2023/10/22 06:09:03;;;;;;;6.07;2.55;;;;;;;10.49;100.00;100214.47;5053310;28;20071;-68
2023/10/22 06:11:29;;;;;;;4.70;2.78;;;;;;;10.51;100.00;100223.09;5052525;28;20043;-68
2023/10/22 06:13:56;;;;;;;4.45;2.25;;;;;;;10.52;100.00;100223.91;5052183;28;20052;-69
2023/10/22 06:16:23;;;;;;;4.85;2.72;;;;;;;10.47;100.00;100229.06;5069734;28;20040;-68
2023/10/22 06:18:48;;;;;;;5.05;2.45;;;;;;;10.48;100.00;100241.38;5069582;28;20439;-68
2023/10/22 06:21:17;;;;;;;6.18;2.95;;;;;;;10.43;100.00;100247.34;5070793;28;20059;-68
2023/10/22 06:23:43;;;;;;;4.95;2.20;;;;;;;10.43;100.00;100251.84;5070611;28;20029;-68
2023/10/22 06:26:12;;;;;;;3.45;2.00;;;;;;;10.44;100.00;100259.63;5070824;28;20019;-69
2023/10/22 06:28:38;;;;;;;2.97;1.80;;;;;;;10.38;100.00;100249.81;5070477;28;20479;-68
2023/10/22 06:31:08;;;;;;;5.97;3.40;;;;;;;10.45;100.00;100266.59;5065514;28;20064;-68
2023/10/22 06:33:35;;;;;;;3.97;2.10;;;;;;;10.49;100.00;100277.66;5032380;28;20123;-69
2023/10/22 06:36:11;;;;;;;2.58;2.05;;;;;;;10.54;100.00;100283.19;5050531;28;20052;-69
2023/10/22 06:38:37;;;;;;;7.32;2.80;;;;;;;10.59;100.00;100287.88;5050890;28;20021;-68
2023/10/22 06:41:02;;;;;;;4.47;1.98;;;;;;;10.59;100.00;100283.38;5051108;28;20033;-69
2023/10/22 06:43:28;;;;;;;5.50;2.92;;;;;;;10.66;100.00;100286.84;5033555;28;20075;-69
2023/10/22 06:45:59;;;;;;;3.53;2.00;;;;;;;10.71;100.00;100292.31;5050922;28;20056;-68
2023/10/22 06:48:24;;;;;;;4.60;1.73;;;;;;;10.75;100.00;100300.75;5051116;28;20073;-68
2023/10/22 06:50:49;;;;;;;5.55;2.28;;;;;;;10.77;100.00;100304.03;5050875;28;20279;-69
2023/10/22 06:53:15;;;;;;;3.83;2.03;;;;;;;10.78;100.00;100292.31;5051140;28;20025;-69
2023/10/22 06:55:42;;;;;;;4.90;2.28;;;;;;;10.83;100.00;100307.69;5033096;28;20035;-68
2023/10/22 06:58:07;;;;;;;3.47;1.42;;;;;;;10.87;100.00;100312.41;5050906;28;20025;-68
2023/10/22 07:00:32;;;;;;;3.88;1.85;;;;;;;10.87;100.00;100308.88;5050784;28;20124;-68
2023/10/22 07:02:58;;;;;;;1.60;1.30;;;;;;;10.92;100.00;100325.09;5032195;28;20036;-69
2023/10/22 07:05:23;;;;;;;4.50;2.25;;;;;;;10.95;100.00;100324.66;5050995;28;20079;-68
2023/10/22 07:07:48;;;;;;;2.15;1.17;;;;;;;10.99;100.00;100333.06;5050912;28;20124;-69
2023/10/22 07:10:14;;;;;;;6.20;1.70;;;;;;;11.01;100.00;100331.84;5032820;28;20594;-69
2023/10/22 07:12:39;;;;;;;9.95;1.65;;;;;;;11.06;100.00;100340.03;5032988;28;20071;-68
2023/10/22 07:15:06;;;;;;;3.50;1.70;;;;;;;11.07;100.00;100344.31;5050729;28;20060;-68
2023/10/22 07:17:31;;;;;;;2.65;1.25;;;;;;;11.07;100.00;100344.31;5050503;28;20025;-68
2023/10/22 07:19:57;;;;;;;1.45;1.20;;;;;;;11.05;100.00;100351.72;5036032;28;20031;-69
2023/10/22 07:22:22;;;;;;;2.03;1.15;;;;;;;11.07;100.00;100359.50;5051730;28;20402;-68
2023/10/22 07:24:49;;;;;;;4.07;1.85;;;;;;;11.06;100.00;100366.72;5051590;28;20036;-68
2023/10/22 07:27:15;;;;;;;5.68;1.60;;;;;;;11.06;100.00;100376.56;5063003;28;20082;-68
2023/10/22 07:29:40;;;;;;;3.80;1.48;;;;;;;11.03;100.00;100372.47;5054865;28;20480;-68
2023/10/22 07:32:06;;;;;;;2.60;1.30;;;;;;;10.97;100.00;100373.28;5056484;28;20122;-74
2023/10/22 07:34:31;;;;;;;6.07;1.73;;;;;;;11.00;100.00;100385.41;5069202;28;20039;-69
2023/10/22 07:36:57;;;;;;;2.78;1.58;;;;;;;10.91;100.00;100374.16;5050356;28;20116;-71
2023/10/22 07:39:22;;;;;;;6.57;1.65;;;;;;;10.96;100.00;100393.81;5047963;28;20503;-71
2023/10/22 07:41:48;;;;;;;3.72;1.52;;;;;;;10.91;100.00;100390.97;5049046;28;20056;-76
2023/10/22 07:44:13;;;;;;;3.00;1.20;;;;;;;10.95;100.00;100402.88;5041589;28;20060;-72
2023/10/22 07:46:38;;;;;;;2.45;1.63;;;;;;;11.02;100.00;100402.03;5038656;28;20476;-72
2023/10/22 07:49:04;;;;;;;5.85;2.55;;;;;;;11.16;100.00;100396.44;5063772;28;20104;-73
2023/10/22 07:51:29;;;;;;;4.78;1.52;;;;;;;11.27;100.00;100402.16;5067345;28;20028;-71
2023/10/22 07:53:55;;;;;;;3.83;1.58;;;;;;;11.35;100.00;100400.03;5068930;28;20047;-75
2023/10/22 07:56:20;;;;;;;3.25;1.70;;;;;;;11.44;100.00;100400.59;5050759;28;20043;-71
2023/10/22 07:58:46;;;;;;;4.95;1.95;;;;;;;11.58;100.00;100393.34;5049720;28;20032;-68
2023/10/22 08:01:11;;;;;;;4.60;2.10;;;;;;;11.69;100.00;100394.53;5049765;28;20053;-71
2023/10/22 08:03:37;;;;;;;2.30;2.00;;;;;;;11.78;100.00;100399.38;5049701;28;20416;-71
2023/10/22 08:06:04;;;;;;;5.68;1.80;;;;;;;11.90;100.00;100409.44;5049273;28;20483;-71
2023/10/22 08:08:29;;;;;;;4.28;2.13;;;;;;;11.97;100.00;100407.50;5049896;28;20024;-71
2023/10/22 08:10:59;;;;;;;6.88;1.60;;;;;;;12.10;100.00;100419.97;5031805;28;20083;-71
2023/10/22 08:13:25;;;;;;;4.65;1.40;;;;;;;12.25;100.00;100423.13;5049733;28;20873;-71
2023/10/22 08:15:52;;;;;;;6.10;1.67;;;;;;;12.28;100.00;100415.47;5049599;28;20039;-71
2023/10/22 08:18:18;;;;;;;5.82;1.48;;;;;;;12.38;100.00;100427.56;5049741;28;20029;-71
2023/10/22 08:20:43;;;;;;;4.88;2.13;;;;;;;12.35;100.00;100436.03;5031472;28;20032;-71
2023/10/22 08:23:09;;;;;;;11.95;3.55;;;;;;;12.34;100.00;100442.38;5049631;28;20060;-71
2023/10/22 08:25:34;;;;;;;5.93;2.75;;;;;;;12.32;100.00;100437.28;5047936;28;20042;-71
2023/10/22 08:28:00;;;;;;;2.88;1.60;;;;;;;12.34;100.00;100450.41;5050534;28;20040;-71
2023/10/22 08:30:26;;;;;;;3.97;1.63;;;;;;;12.34;100.00;100442.38;5068717;28;20033;-71
2023/10/22 08:32:51;;;;;;;6.15;1.88;;;;;;;12.35;100.00;100447.53;5068299;28;20032;-71
2023/10/22 08:35:16;;;;;;;5.97;2.30;;;;;;;12.41;100.00;100443.97;5062524;28;20403;-71
2023/10/22 08:37:42;;;;;;;2.03;1.25;;;;;;;12.45;100.00;100445.19;5048934;28;20059;-71
2023/10/22 08:40:08;;;;;;;6.20;1.58;;;;;;;12.50;100.00;100437.31;5015030;28;20507;-71
2023/10/22 08:42:35;;;;;;;6.43;2.53;;;;;;;12.75;100.00;100457.06;5036074;28;20040;-71
2023/10/22 08:45:01;;;;;;;3.40;1.13;;;;;;;12.84;100.00;100450.41;5065339;28;20045;-71
2023/10/22 08:47:28;;;;;;;4.47;1.20;;;;;;;12.95;100.00;100476.41;5031460;28;20070;-69
2023/10/22 08:49:55;;;;;;;4.78;1.88;;;;;;;12.92;100.00;100466.16;5051417;28;20621;-71
2023/10/22 08:52:20;;;;;;;5.15;1.98;;;;;;;12.91;100.00;100472.53;5065651;28;20078;-71
2023/10/22 08:54:46;;;;;;;4.75;2.97;;;;;;;12.90;100.00;100473.59;5062604;28;20041;-71
2023/10/22 08:57:12;;;;;;;3.38;2.47;;;;;;;12.94;100.00;100474.75;5053947;28;20710;-71
2023/10/22 08:59:38;;;;;;;4.57;2.25;;;;;;;12.95;100.00;100481.78;5058330;28;20051;-71
2023/10/22 09:02:08;;;;;;;3.20;1.80;;;;;;;12.95;100.00;100481.78;5052385;28;20044;-71
2023/10/22 09:04:34;;;;;;;4.25;2.03;;;;;;;13.01;100.00;100488.91;5052840;28;20033;-71
2023/10/22 09:06:59;;;;;;;4.75;2.50;;;;;;;13.05;100.00;100494.66;5053015;28;20087;-72
2023/10/22 09:09:32;;;;;;;4.00;1.95;;;;;;;13.03;100.00;100494.88;5062419;28;20048;-71
2023/10/22 09:11:58;;;;;;;5.38;2.10;;;;;;;13.07;100.00;100490.72;5072181;28;20075;-71
2023/10/22 09:14:24;;;;;;;2.58;1.67;;;;;;;13.13;100.00;100499.72;5071985;28;20432;-71
2023/10/22 09:16:50;;;;;;;5.00;2.15;;;;;;;13.15;100.00;100492.25;5071881;28;20079;-71
2023/10/22 09:19:37;;;;;;;6.90;3.08;;;;;;;13.23;100.00;100497.34;5060932;28;20057;-71
2023/10/22 09:22:06;;;;;;;8.75;2.28;;;;;;;13.28;100.00;100496.69;5067573;28;20032;-71
2023/10/22 09:24:34;;;;;;;6.25;2.88;;;;;;;13.31;100.00;100501.63;5056151;28;20040;-71
2023/10/22 09:26:59;;;;;;;4.57;2.42;;;;;;;13.40;100.00;100518.22;5052103;28;20015;-71
2023/10/22 09:29:26;;;;;;;4.25;1.90;;;;;;;13.50;100.00;100515.81;5066314;28;20032;-71
2023/10/22 09:31:53;;;;;;;4.15;2.10;;;;;;;13.62;100.00;100523.91;5046184;28;20468;-70
2023/10/22 09:34:33;;;;;;;4.13;1.95;;;;;;;13.62;100.00;100516.69;5062321;28;20115;-71
2023/10/22 09:36:59;;;;;;;5.80;2.28;;;;;;;13.65;100.00;100526.13;5052060;28;20051;-71
2023/10/22 09:39:45;;;;;;;6.45;2.30;;;;;;;13.65;100.00;100535.03;5071542;28;20471;-70
2023/10/22 09:42:12;;;;;;;4.55;2.28;;;;;;;13.61;100.00;100538.38;5071321;28;20039;-71
2023/10/22 09:44:39;;;;;;;6.53;2.08;;;;;;;13.58;100.00;100535.09;5071475;28;20032;-71
2023/10/22 09:47:08;;;;;;;6.57;2.47;;;;;;;13.54;100.00;100535.75;5071818;28;20032;-71
2023/10/22 09:49:35;;;;;;;3.42;2.58;;;;;;;13.46;100.00;100542.22;5058447;28;20487;-71
2023/10/22 09:52:08;;;;;;;4.30;2.30;;;;;;;13.45;100.00;100550.50;5047811;28;20039;-70
2023/10/22 09:54:38;;;;;;;8.65;2.63;;;;;;;13.43;100.00;100560.63;5070426;28;20109;-71
2023/10/22 09:57:08;;;;;;;2.90;2.22;;;;;;;13.37;100.00;100556.97;5064431;28;20037;-70
2023/10/22 09:59:35;;;;;;;3.60;2.25;;;;;;;13.31;100.00;100556.00;5065651;28;20545;-70
2023/10/22 10:02:01;;;;;;;3.72;3.08;;;;;;;13.31;100.00;100555.19;5053656;28;20032;-70
2023/10/22 10:04:26;;;;;;;4.00;2.45;;;;;;;13.24;100.00;100562.44;5071052;28;20433;-70
2023/10/22 10:06:55;;;;;;;4.32;2.67;;;;;;;13.20;100.00;100561.22;5070974;28;20029;-70
2023/10/22 10:09:23;;;;;;;6.38;2.38;;;;;;;13.17;100.00;100565.16;5070962;28;20055;-70
2023/10/22 10:11:50;;;;;;;6.10;2.63;;;;;;;13.18;100.00;100576.69;5071199;28;20229;-70
2023/10/22 10:14:45;;;;;;;9.05;2.90;;;;;;;13.19;100.00;100575.66;5056092;28;20052;-70
2023/10/22 10:17:11;;;;;;;5.15;2.90;;;;;;;13.24;100.00;100579.31;5045359;28;20040;-70
2023/10/22 10:19:37;;;;;;;9.55;3.45;;;;;;;13.33;100.00;100569.16;5070490;28;20064;-69
2023/10/22 10:22:03;;;;;;;7.15;3.38;;;;;;;13.40;100.00;100569.91;5070759;28;20105;-70
2023/10/22 10:24:30;;;;;;;7.85;3.38;;;;;;;13.50;100.00;100572.91;5059921;28;20037;-69
2023/10/22 10:26:56;;;;;;;5.85;3.33;;;;;;;13.54;100.00;100573.25;5051517;28;20025;-71
2023/10/22 10:29:26;;;;;;;6.30;2.83;;;;;;;13.58;100.00;100586.00;5051496;28;20154;-68
2023/10/22 10:31:53;;;;;;;13.63;3.88;;;;;;;13.63;100.00;100581.84;5051474;28;20491;-71
2023/10/22 10:34:27;;;;;;;11.43;4.80;;;;;;;13.68;100.00;100590.03;5049176;28;20085;-71
2023/10/22 10:36:53;;;;;;;5.82;3.50;;;;;;;13.71;100.00;100592.25;5049000;28;20067;-69
2023/10/22 10:39:37;;;;;;;6.38;3.35;;;;;;;13.73;100.00;100590.19;5055442;28;20369;-71
2023/10/22 10:42:03;;;;;;;7.85;4.20;;;;;;;13.66;100.00;100597.47;5049369;28;20098;-71
2023/10/22 10:44:29;;;;;;;5.07;3.08;;;;;;;13.64;100.00;100597.69;5049159;28;20682;-71
2023/10/22 10:46:54;;;;;;;4.88;3.35;;;;;;;13.64;100.00;100592.31;5049133;28;20039;-71
2023/10/22 10:49:56;;;;;;;5.40;2.72;;;;;;;13.66;100.00;100592.13;5058597;28;20123;-69
2023/10/22 10:52:21;;;;;;;3.00;2.38;;;;;;;13.62;100.00;100588.22;5049119;28;20036;-69
2023/10/22 10:55:18;;;;;;;5.45;3.95;;;;;;;13.62;100.00;100588.22;5052990;28;20037;-67
2023/10/22 10:57:48;;;;;;;4.75;3.13;;;;;;;13.63;100.00;100592.56;4978214;28;20060;-68
2023/10/22 11:00:19;;;;;;;5.10;2.33;;;;;;;13.63;100.00;100595.25;5067071;28;20477;-69
2023/10/22 11:02:49;;;;;;;;;;;;;;;13.72;100.00;100596.56;5062061;28;20067;-69
2023/10/22 11:05:15;;;;;;;5.90;2.92;;;;;;;13.70;100.00;100598.66;5060598;28;19909;-71
2023/10/22 11:07:43;;;;;;;4.03;3.10;;;;;;;13.75;100.00;100601.47;5065929;28;20145;-69
2023/10/22 11:10:14;;;;;;;6.03;2.83;;;;;;;13.74;100.00;100602.53;5048668;28;20053;-69
2023/10/22 11:12:40;;;;;;;5.05;2.90;;;;;;;13.75;100.00;100610.38;5066872;28;20032;-68
2023/10/22 11:15:10;;;;;;;7.93;2.65;;;;;;;13.77;100.00;100602.09;5059834;28;20047;-69
2023/10/22 11:17:38;;;;;;;16.15;4.40;;;;;;;13.84;100.00;100612.75;5049793;28;20127;-69